Site contains unofficial IBTrACS data. Visit the IBTrACS Website to access archived data.

1907 Tropical Cyclone NOT_NAMED (1907018S13147)


IBTrACS version v04r00. Visit IBTrACS website for data access.
Please direct all questions to the IBTrACS Q and A forum

Storm track - Intensity - Wind Radii - Intensity Data - Source Data - All data

Summary Information

Storm ID 1907018S13147
Start Jan 17 23Z
Landfall Jan 18 21Z, Jan 21 23Z, Jan 23 11Z
Max Intensity 40 kt (Jan 18 00Z), 993 mb (Jan 18 23Z)
End Jan 26 23Z
ATCF IDs
Track status Best track data.

Storm track plot

Map of storm track

Intensity plots

Map of storm track

Radial wind information

No radial wind information for this storm


Position and Intensity Table

BASIN ISO_TIME_________ NATURE LAT LON WMO PRES BOM PRES DS824 WIND DS824 PRES
degrees north degrees east mb mb kts mb
SP 1907-01-17 23:00:00 NR -13.00 146.50 994 994
SP 1907-01-18 00:00:00 TS -13.11 146.43 40 994
SP 03:00:00 TS -13.44 146.25
SP 06:00:00 TS -13.76 146.07
SP 09:00:00 TS -14.07 145.89
SP 11:00:00 TS -14.26 145.77
SP 12:00:00 TS -14.35 145.71
SP 15:00:00 TS -14.60 145.53
SP 18:00:00 TS -14.80 145.34
SP 21:00:00 TS -14.94 145.14
SP 23:00:00 TS -14.99 144.99 993 993
SP 1907-01-19 00:00:00 TS -15.01 144.91 40 993
SP 03:00:00 TS -15.00 144.66
SP 06:00:00 TS -14.93 144.40
SP 09:00:00 TS -14.80 144.13
SP 11:00:00 TS -14.70 143.95
SP 12:00:00 TS -14.65 143.86
SP 15:00:00 TS -14.48 143.61
SP 18:00:00 TS -14.29 143.37
SP 21:00:00 TS -14.12 143.15
SP 23:00:00 TS -14.02 143.02 993 993
SP 1907-01-20 00:00:00 TS -13.97 142.96 40 993
SP 03:00:00 TS -13.86 142.81
SP 06:00:00 TS -13.77 142.68
SP 09:00:00 TS -13.69 142.55
SP 11:00:00 TS -13.64 142.48
SP 12:00:00 TS -13.61 142.43
SP 15:00:00 TS -13.53 142.31
SP 18:00:00 TS -13.49 142.19
SP 21:00:00 TS -13.49 142.08
SP 23:00:00 TS -13.52 142.01 993 993
SP 1907-01-21 00:00:00 TS -13.56 141.98 40 993
SP 03:00:00 TS -13.71 141.89
SP 06:00:00 TS -13.93 141.81
SP 09:00:00 TS -14.19 141.74
SP 11:00:00 TS -14.38 141.70
SP 12:00:00 TS -14.48 141.68
SP 15:00:00 TS -14.79 141.64
SP 18:00:00 TS -15.11 141.59
SP 21:00:00 TS -15.42 141.53
SP 23:00:00 TS -15.60 141.48 998 998
SP 1907-01-22 00:00:00 TS -15.68 141.44 35 998
SP 03:00:00 TS -15.89 141.33
SP 06:00:00 TS -16.07 141.19
SP 09:00:00 TS -16.24 141.05
SP 11:00:00 TS -16.35 140.94
SP 12:00:00 TS -16.41 140.89
SP 15:00:00 TS -16.58 140.74
SP 18:00:00 TS -16.74 140.58
SP 21:00:00 TS -16.89 140.41
SP 23:00:00 TS -16.98 140.29 994 994
SP 1907-01-23 00:00:00 TS -17.03 140.22 40 994
SP 03:00:00 TS -17.15 140.02
SP 06:00:00 TS -17.26 139.81
SP 09:00:00 TS -17.38 139.58
SP 11:00:00 TS -17.45 139.43
SP 12:00:00 TS -17.49 139.35
SP 15:00:00 TS -17.62 139.11
SP 18:00:00 TS -17.76 138.88
SP 21:00:00 TS -17.91 138.66
SP 23:00:00 TS -18.01 138.52 996 996
SP 1907-01-24 00:00:00 TS -18.07 138.46 35 996
SP 03:00:00 TS -18.24 138.27
SP 06:00:00 TS -18.42 138.11
SP 09:00:00 TS -18.62 137.96
SP 11:00:00 TS -18.75 137.87
SP 12:00:00 TS -18.82 137.82
SP 15:00:00 TS -19.03 137.70
SP 18:00:00 TS -19.26 137.61
SP 21:00:00 TS -19.51 137.54
SP 23:00:00 TS -19.70 137.50 1000 1000
SP 1907-01-25 00:00:00 TS -19.80 137.49 30 1000
SP 03:00:00 TS -20.11 137.45
SP 06:00:00 TS -20.44 137.45
SP 09:00:00 TS -20.79 137.48
SP 11:00:00 TS -21.03 137.52
SP 12:00:00 TS -21.14 137.54
SP 15:00:00 TS -21.47 137.63
SP 18:00:00 TS -21.83 137.75
SP 21:00:00 TS -22.23 137.90
SP 23:00:00 TS -22.53 138.01 1002 1002
SP 1907-01-26 00:00:00 TS -22.71 138.08 25 1002
SP 03:00:00 NR -23.36 138.33
SP 06:00:00 NR -24.12 138.61
SP 09:00:00 NR -24.94 138.90
SP 11:00:00 NR -25.50 139.08
SP 12:00:00 NR -25.79 139.17
SP 15:00:00 NR -26.66 139.42
SP 18:00:00 NR -27.53 139.64
SP 21:00:00 NR -28.41 139.86
SP 23:00:00 NR -29.00 140.00 1004 1004

Source Information

Agency Information
USA
TOKYO
CMA
HKO
NEWDELHI
REUNION
BOM IDCKMSTM0S.csv:Line=6:unnamed
NADI
WELLINGTON
DS824 aus_area.dat:1:NOT NAMED
TD9636 cons_worldwide_trop_cyclone_18710101-19891231-006:Line=270
TD9635
NEUMANN
MLC

All available IBTrACS Data

SEASON BASIN SUBBASIN ISO_TIME_________ NATURE LAT LON WMO PRES WMO AGENCY DIST2LAND LANDFALL IFLAG USA SSHS BOM LAT BOM LON BOM PRES DS824 LAT DS824 LON DS824 STAGE DS824 WIND DS824 PRES TD9636 LAT TD9636 LON TD9636 STAGE STORM SPEED STORM DIR
Year degrees north degrees east mb km km 1 degrees north degrees east mb degrees north degrees east kts mb degrees north degrees east kts degrees
1907 SP EA 1907-01-17 23:00:00 NR -13.00 146.50 994 bom 254 239 ______O___O___ -1 -13.00 146.50 994 -13.00 146.50 7 8 210
1907 SP EA 1907-01-18 00:00:00 TS -13.11 146.43 239 205 ______P__OP___ -1 -13.12 146.45 -13.10 146.40 TC 40 994 -13.10 146.43 7 8 209
1907 SP EA 03:00:00 TS -13.44 146.25 199 165 ______P__PP___ -1 -13.47 146.28 -13.44 146.23 TC -13.41 146.22 7 7 208
1907 SP EA 06:00:00 TS -13.76 146.07 156 117 ______P__PP___ -1 -13.81 146.12 -13.77 146.07 TC -13.71 146.01 7 7 209
1907 SP EA 09:00:00 TS -14.07 145.89 117 101 ______P__PP___ -1 -14.12 145.95 -14.07 145.89 TC -14.01 145.82 7 7 210
1907 SP EA 11:00:00 TS -14.26 145.77 93 86 ______P__PO___ -1 -14.31 145.83 -14.27 145.78 TC -14.20 145.70 7 7 211
1907 SP EA 12:00:00 TS -14.35 145.71 77 46 ______P__PP___ -1 -14.40 145.77 -14.35 145.72 TC -14.29 145.64 7 6 214
1907 SP EA 15:00:00 TS -14.60 145.53 46 24 ______P__PP___ -1 -14.64 145.58 -14.60 145.53 TC -14.56 145.48 7 6 218
1907 SP EA 18:00:00 TS -14.80 145.34 15 0 ______P__PP___ -1 -14.83 145.37 -14.79 145.33 TC -14.78 145.32 7 5 228
1907 SP EA 21:00:00 TS -14.94 145.14 0 0 ______P__PP___ -1 -14.96 145.16 -14.93 145.12 TC -14.94 145.14 7 5 240
1907 SP EA 23:00:00 TS -14.99 144.99 993 bom 0 0 ______O__PO___ -1 -15.00 145.00 993 -14.98 144.98 TC -15.00 145.00 7 5 253
1907 SP EA 1907-01-19 00:00:00 TS -15.01 144.91 0 0 ______P__OP___ -1 -15.01 144.92 -15.00 144.90 TC 40 993 -15.02 144.92 7 5 269
1907 SP EA 03:00:00 TS -15.00 144.66 0 0 ______P__PP___ -1 -14.99 144.67 -15.00 144.66 TC -15.01 144.65 7 5 279
1907 SP EA 06:00:00 TS -14.93 144.40 0 0 ______P__PP___ -1 -14.91 144.40 -14.93 144.41 TC -14.93 144.37 7 6 291
1907 SP EA 09:00:00 TS -14.80 144.13 0 0 ______P__PP___ -1 -14.79 144.14 -14.82 144.16 TC -14.80 144.08 7 6 297
1907 SP EA 11:00:00 TS -14.70 143.95 0 0 ______P__PO___ -1 -14.69 143.96 -14.73 143.99 TC -14.70 143.90 7 6 301
1907 SP EA 12:00:00 TS -14.65 143.86 0 0 ______P__PP___ -1 -14.63 143.87 -14.67 143.91 TC -14.65 143.81 7 6 305
1907 SP EA 15:00:00 TS -14.48 143.61 0 0 ______P__PP___ -1 -14.46 143.61 -14.50 143.66 TC -14.47 143.56 7 6 307
1907 SP EA 18:00:00 TS -14.29 143.37 0 0 ______P__PP___ -1 -14.28 143.37 -14.33 143.42 TC -14.28 143.32 7 6 309
1907 SP EA 21:00:00 TS -14.12 143.15 0 0 ______P__PP___ -1 -14.10 143.14 -14.15 143.20 TC -14.10 143.12 7 5 309
1907 SP EA 23:00:00 TS -14.02 143.02 993 bom 0 0 ______O__PO___ -1 -14.00 143.00 993 -14.05 143.06 TC -14.00 143.00 7 5 309
1907 SP EA 1907-01-20 00:00:00 TS -13.97 142.96 0 0 ______P__OP___ -1 -13.95 142.94 -14.00 143.00 TC 40 993 -13.97 142.95 7 4 306
1907 SP EA 03:00:00 TS -13.86 142.81 0 0 ______P__PP___ -1 -13.82 142.76 -13.87 142.83 TC -13.90 142.84 7 3 306
1907 SP EA 06:00:00 TS -13.77 142.68 0 0 ______P__PP___ -1 -13.69 142.61 -13.75 142.67 TC -13.86 142.75 7 3 306
1907 SP EA 09:00:00 TS -13.69 142.55 0 0 ______P__PP___ -1 -13.58 142.47 -13.65 142.53 TC -13.83 142.67 7 3 304
1907 SP EA 11:00:00 TS -13.64 142.48 0 0 ______P__PO___ -1 -13.52 142.39 -13.59 142.44 TC -13.80 142.60 7 3 303
1907 SP EA 12:00:00 TS -13.61 142.43 0 0 ______P__PP___ -1 -13.49 142.35 -13.57 142.40 TC -13.76 142.55 7 3 303
1907 SP EA 15:00:00 TS -13.53 142.31 0 0 ______P__PP___ -1 -13.43 142.24 -13.51 142.29 TC -13.65 142.40 7 3 297
1907 SP EA 18:00:00 TS -13.49 142.19 0 0 ______P__PP___ -1 -13.42 142.14 -13.50 142.18 TC -13.54 142.25 7 2 281
1907 SP EA 21:00:00 TS -13.49 142.08 0 0 ______P__PP___ -1 -13.45 142.05 -13.52 142.09 TC -13.49 142.09 7 2 258
1907 SP EA 23:00:00 TS -13.52 142.01 993 bom 0 0 ______O__PO___ -1 -13.50 142.00 993 -13.57 142.03 TC -13.50 142.00 7 2 234
1907 SP EA 1907-01-21 00:00:00 TS -13.56 141.98 0 0 ______P__OP___ -1 -13.54 141.97 -13.60 142.00 TC 40 993 -13.52 141.96 7 3 213
1907 SP EA 03:00:00 TS -13.71 141.89 0 0 ______P__PP___ -1 -13.72 141.91 -13.76 141.92 TC -13.65 141.83 7 4 204
1907 SP EA 06:00:00 TS -13.93 141.81 0 0 ______P__PP___ -1 -13.95 141.85 -13.98 141.85 TC -13.85 141.73 7 5 197
1907 SP EA 09:00:00 TS -14.19 141.74 0 0 ______P__PP___ -1 -14.21 141.80 -14.24 141.78 TC -14.11 141.64 7 6 193
1907 SP EA 11:00:00 TS -14.38 141.70 0 0 ______P__PO___ -1 -14.41 141.76 -14.42 141.74 TC -14.30 141.60 7 6 192
1907 SP EA 12:00:00 TS -14.48 141.68 0 0 ______P__PP___ -1 -14.51 141.75 -14.52 141.72 TC -14.40 141.59 7 6 188
1907 SP EA 15:00:00 TS -14.79 141.64 10 10 ______P__PP___ -1 -14.81 141.69 -14.82 141.65 TC -14.73 141.57 7 6 188
1907 SP EA 18:00:00 TS -15.11 141.59 10 0 ______P__PP___ -1 -15.12 141.63 -15.13 141.58 TC -15.07 141.56 7 6 190
1907 SP EA 21:00:00 TS -15.42 141.53 10 0 ______P__PP___ -1 -15.42 141.56 -15.43 141.50 TC -15.40 141.54 7 6 193
1907 SP EA 23:00:00 TS -15.60 141.48 998 bom 0 0 ______O__PO___ -1 -15.60 141.50 998 -15.61 141.43 TC -15.60 141.50 7 6 197
1907 SP EA 1907-01-22 00:00:00 TS -15.68 141.44 10 10 ______P__OP___ -1 -15.67 141.47 -15.70 141.40 TC 35 998 -15.68 141.47 7 5 207
1907 SP EA 03:00:00 TS -15.89 141.33 10 10 ______P__PP___ -1 -15.88 141.36 -15.90 141.29 TC -15.88 141.34 7 5 212
1907 SP EA 06:00:00 TS -16.07 141.19 21 21 ______P__PP___ -1 -16.08 141.23 -16.09 141.16 TC -16.05 141.18 7 4 218
1907 SP EA 09:00:00 TS -16.24 141.05 39 33 ______P__PP___ -1 -16.27 141.10 -16.26 141.03 TC -16.20 141.01 7 4 221
1907 SP EA 11:00:00 TS -16.35 140.94 42 42 ______P__PO___ -1 -16.38 141.00 -16.37 140.93 TC -16.30 140.90 7 4 222
1907 SP EA 12:00:00 TS -16.41 140.89 42 39 ______P__PP___ -1 -16.44 140.95 -16.42 140.88 TC -16.36 140.85 7 4 221
1907 SP EA 15:00:00 TS -16.58 140.74 54 46 ______P__PP___ -1 -16.60 140.79 -16.58 140.73 TC -16.55 140.71 7 4 223
1907 SP EA 18:00:00 TS -16.74 140.58 54 48 ______P__PP___ -1 -16.76 140.61 -16.72 140.56 TC -16.73 140.57 7 4 226
1907 SP EA 21:00:00 TS -16.89 140.41 64 64 ______P__PP___ -1 -16.91 140.43 -16.86 140.38 TC -16.90 140.41 7 4 228
1907 SP EA 23:00:00 TS -16.98 140.29 994 bom 74 74 ______O__PO___ -1 -17.00 140.30 994 -16.95 140.26 TC -17.00 140.30 7 4 231
1907 SP EA 1907-01-23 00:00:00 TS -17.03 140.22 78 59 ______P__OP___ -1 -17.04 140.23 -17.00 140.20 TC 40 994 -17.04 140.24 7 5 237
1907 SP EA 03:00:00 TS -17.15 140.02 49 30 ______P__PP___ -1 -17.17 140.01 -17.14 140.00 TC -17.15 140.06 7 5 239
1907 SP EA 06:00:00 TS -17.26 139.81 30 10 ______P__PP___ -1 -17.29 139.78 -17.27 139.78 TC -17.24 139.86 7 5 242
1907 SP EA 09:00:00 TS -17.38 139.58 10 0 ______P__PP___ -1 -17.40 139.54 -17.39 139.56 TC -17.33 139.65 7 5 243
1907 SP EA 11:00:00 TS -17.45 139.43 0 0 ______P__PO___ -1 -17.48 139.38 -17.48 139.41 TC -17.40 139.50 7 5 242
1907 SP EA 12:00:00 TS -17.49 139.35 0 0 ______P__PP___ -1 -17.52 139.30 -17.52 139.33 TC -17.44 139.42 7 5 241
1907 SP EA 15:00:00 TS -17.62 139.11 0 0 ______P__PP___ -1 -17.63 139.07 -17.65 139.11 TC -17.57 139.16 7 5 240
1907 SP EA 18:00:00 TS -17.76 138.88 0 0 ______P__PP___ -1 -17.76 138.84 -17.79 138.89 TC -17.72 138.90 7 5 237
1907 SP EA 21:00:00 TS -17.91 138.66 0 0 ______P__PP___ -1 -17.90 138.63 -17.94 138.69 TC -17.88 138.65 7 5 233
1907 SP EA 23:00:00 TS -18.01 138.52 996 bom 0 0 ______O__PO___ -1 -18.00 138.50 996 -18.04 138.56 TC -18.00 138.50 7 5 229
1907 SP EA 1907-01-24 00:00:00 TS -18.07 138.46 0 0 ______P__OP___ -1 -18.05 138.44 -18.10 138.50 TC 35 996 -18.06 138.43 7 5 226
1907 SP EA 03:00:00 TS -18.24 138.27 0 0 ______P__PP___ -1 -18.21 138.25 -18.26 138.31 TC -18.25 138.26 7 5 224
1907 SP EA 06:00:00 TS -18.42 138.11 0 0 ______P__PP___ -1 -18.39 138.08 -18.43 138.14 TC -18.45 138.11 7 5 218
1907 SP EA 09:00:00 TS -18.62 137.96 0 0 ______P__PP___ -1 -18.58 137.92 -18.61 137.97 TC -18.66 137.98 7 5 215
1907 SP EA 11:00:00 TS -18.75 137.87 0 0 ______P__PO___ -1 -18.71 137.83 -18.74 137.87 TC -18.80 137.90 7 5 211
1907 SP EA 12:00:00 TS -18.82 137.82 0 0 ______P__PP___ -1 -18.79 137.79 -18.81 137.83 TC -18.86 137.86 7 5 209
1907 SP EA 15:00:00 TS -19.03 137.70 0 0 ______P__PP___ -1 -19.01 137.67 -19.02 137.71 TC -19.05 137.73 7 5 205
1907 SP EA 18:00:00 TS -19.26 137.61 0 0 ______P__PP___ -1 -19.25 137.58 -19.26 137.61 TC -19.26 137.63 7 5 198
1907 SP EA 21:00:00 TS -19.51 137.54 0 0 ______P__PP___ -1 -19.51 137.52 -19.52 137.54 TC -19.51 137.54 7 5 192
1907 SP EA 23:00:00 TS -19.70 137.50 1000 bom 0 0 ______O__PO___ -1 -19.70 137.50 1000 -19.70 137.51 TC -19.70 137.50 7 6 189
1907 SP EA 1907-01-25 00:00:00 TS -19.80 137.49 0 0 ______P__OP___ -1 -19.78 137.49 -19.80 137.50 TC 30 1000 -19.81 137.47 7 6 185
1907 SP EA 03:00:00 TS -20.11 137.45 0 0 ______P__PP___ -1 -20.01 137.46 -20.11 137.50 TC -20.20 137.41 7 7 184
1907 SP EA 06:00:00 TS -20.44 137.45 0 0 ______P__PP___ -1 -20.26 137.46 -20.45 137.52 TC -20.62 137.37 7 7 179
1907 SP EA 09:00:00 TS -20.79 137.48 0 0 ______P__PP___ -1 -20.53 137.50 -20.81 137.58 TC -21.04 137.37 7 7 174
1907 SP EA 11:00:00 TS -21.03 137.52 0 0 ______P__PO___ -1 -20.74 137.53 -21.06 137.63 TC -21.30 137.40 7 7 170
1907 SP EA 12:00:00 TS -21.14 137.54 0 0 ______P__PP___ -1 -20.85 137.56 -21.19 137.65 TC -21.39 137.42 7 7 167
1907 SP EA 15:00:00 TS -21.47 137.63 0 0 ______P__PP___ -1 -21.22 137.64 -21.58 137.75 TC -21.63 137.51 7 7 164
1907 SP EA 18:00:00 TS -21.83 137.75 0 0 ______P__PP___ -1 -21.64 137.75 -21.98 137.86 TC -21.87 137.65 7 8 162
1907 SP EA 21:00:00 TS -22.23 137.90 0 0 ______P__PP___ -1 -22.13 137.89 -22.39 137.98 TC -22.20 137.84 7 9 161
1907 SP EA 23:00:00 TS -22.53 138.01 1002 bom 0 0 ______O__PO___ -1 -22.50 138.00 1002 -22.66 138.06 TC -22.50 138.00 7 10 161
1907 SP EA 1907-01-26 00:00:00 TS -22.71 138.08 0 0 ______P__OP___ -1 -22.70 138.06 -22.80 138.10 TC 25 1002 -22.69 138.09 7 13 160
1907 SP EA 03:00:00 NR -23.36 138.33 0 0 ______P___P___ -1 -23.35 138.25 TC -23.37 138.41 7 15 161
1907 SP EA 06:00:00 NR -24.12 138.61 0 0 ______P___P___ -1 -24.07 138.46 TC -24.16 138.76 7 17 162
1907 SP EA 09:00:00 NR -24.94 138.90 0 0 ______P___P___ -1 -24.86 138.70 TC -25.02 139.10 7 18 163
1907 SP EA 11:00:00 NR -25.50 139.08 0 0 ______P___O___ -1 -25.41 138.87 TC -25.60 139.30 7 18 164
1907 SP EA 12:00:00 NR -25.79 139.17 0 0 ______P___P___ -1 -25.69 138.95 TC -25.89 139.39 7 18 165
1907 SP EA 15:00:00 NR -26.66 139.42 0 0 ______P___P___ -1 -26.57 139.22 TC -26.75 139.61 7 18 166
1907 SP EA 18:00:00 NR -27.53 139.64 0 0 ______P___P___ -1 -27.47 139.51 TC -27.60 139.78 7 18 167
1907 SP EA 21:00:00 NR -28.41 139.86 0 0 ______P___P___ -1 -28.38 139.80 TC -28.44 139.92 7 18 168
1907 SP EA 23:00:00 NR -29.00 140.00 1004 bom 0 ______O___O___ -1 -29.00 140.00 1004 TC -29.00 140.00 7 18 168